createdAt,value
2019-04-20T00:00:37.173Z,958.48
2019-04-20T00:01:32.651Z,958.50
2019-04-20T00:02:31.593Z,958.52
2019-04-20T00:03:37.659Z,958.60
2019-04-20T00:04:35.185Z,958.55
2019-04-20T00:05:30.942Z,958.48
2019-04-20T00:06:37.731Z,958.52
2019-04-20T00:07:34.257Z,958.49
2019-04-20T00:08:34.453Z,958.52
2019-04-20T00:09:34.814Z,958.48
2019-04-20T00:10:41.735Z,958.50
2019-04-20T00:11:41.406Z,958.47
2019-04-20T00:12:42.353Z,958.51
2019-04-20T00:13:40.773Z,958.56
2019-04-20T00:14:33.795Z,958.50
2019-04-20T00:15:30.173Z,958.52
2019-04-20T00:16:29.713Z,958.47
2019-04-20T00:17:30.646Z,958.49
2019-04-20T00:18:36.929Z,958.48
2019-04-20T00:19:37.099Z,958.48
2019-04-20T00:20:32.867Z,958.47
2019-04-20T00:21:29.275Z,958.47
2019-04-20T00:22:36.731Z,958.44
2019-04-20T00:23:35.187Z,958.44
2019-04-20T00:24:33.293Z,958.45
2019-04-20T00:25:42.894Z,958.40
2019-04-20T00:26:59.634Z,958.43
2019-04-20T00:27:50.207Z,958.44
2019-04-20T00:28:45.632Z,958.43
2019-04-20T00:29:47.954Z,958.44
2019-04-20T00:30:46.817Z,958.42
2019-04-20T00:31:42.996Z,958.35
2019-04-20T00:32:41.305Z,958.35
2019-04-20T00:33:43.563Z,958.31
2019-04-20T00:34:33.115Z,958.32
2019-04-20T00:35:29.277Z,958.37
2019-04-20T00:36:29.074Z,958.31
2019-04-20T00:37:27.778Z,958.33
2019-04-20T00:38:37.184Z,958.35
2019-04-20T00:39:27.937Z,958.32
2019-04-20T00:40:28.534Z,958.30
2019-04-20T00:41:27.701Z,958.29
2019-04-20T00:42:33.997Z,958.32
2019-04-20T00:43:32.517Z,958.34
2019-04-20T00:44:31.602Z,958.33
2019-04-20T00:45:30.607Z,958.34
2019-04-20T00:46:33.983Z,958.32
2019-04-20T00:47:37.559Z,958.41
2019-04-20T00:48:37.513Z,958.34
2019-04-20T00:49:39.511Z,958.38
2019-04-20T00:50:43.065Z,958.37
2019-04-20T00:51:45.598Z,958.37
2019-04-20T00:52:45.206Z,958.39
2019-04-20T00:53:34.219Z,958.40
2019-04-20T00:54:26.410Z,958.38
2019-04-20T00:55:27.110Z,958.38
2019-04-20T00:56:26.476Z,958.39
2019-04-20T00:57:39.332Z,958.37
2019-04-20T00:58:33.175Z,958.41
2019-04-20T00:59:36.968Z,958.35
2019-04-20T01:00:40.821Z,958.37
2019-04-20T01:01:47.673Z,958.35
2019-04-20T01:02:37.174Z,958.36
2019-04-20T01:03:39.078Z,958.35
2019-04-20T01:04:40.707Z,958.32
2019-04-20T01:05:46.703Z,958.37
2019-04-20T01:06:42.502Z,958.36
2019-04-20T01:07:37.696Z,958.38
2019-04-20T01:08:25.514Z,958.36
2019-04-20T01:09:24.746Z,958.40
2019-04-20T01:10:29.197Z,958.38
2019-04-20T01:11:32.082Z,958.38
2019-04-20T01:12:28.600Z,958.38
2019-04-20T01:13:26.687Z,958.37
2019-04-20T01:14:38.054Z,958.33
2019-04-20T01:15:36.398Z,958.37
2019-04-20T01:16:36.539Z,958.34
2019-04-20T01:17:23.876Z,958.31
2019-04-20T01:18:23.779Z,958.34
2019-04-20T01:19:23.705Z,958.31
2019-04-20T01:20:26.386Z,958.31
2019-04-20T01:21:26.767Z,958.28
2019-04-20T01:22:25.610Z,958.30
2019-04-20T01:23:29.211Z,958.30
2019-04-20T01:24:29.634Z,958.28
2019-04-20T01:25:29.101Z,958.31
2019-04-20T01:26:24.286Z,958.27
2019-04-20T01:27:32.168Z,958.29
2019-04-20T01:28:38.410Z,958.31
2019-04-20T01:29:32.387Z,958.28
2019-04-20T01:30:30.328Z,958.28
2019-04-20T01:31:33.676Z,958.27
2019-04-20T01:32:33.396Z,958.29
2019-04-20T01:33:31.698Z,958.29
2019-04-20T01:34:37.901Z,958.27
2019-04-20T01:35:39.453Z,958.28
2019-04-20T01:36:40.694Z,958.25
2019-04-20T01:37:33.726Z,958.31
2019-04-20T01:38:35.985Z,958.26
2019-04-20T01:39:28.438Z,958.25
2019-04-20T01:40:21.668Z,958.27
2019-04-20T01:41:22.409Z,958.26
2019-04-20T01:42:21.471Z,958.26
2019-04-20T01:43:22.573Z,958.29
2019-04-20T01:44:27.090Z,958.31
2019-04-20T01:45:27.361Z,958.31
2019-04-20T01:46:23.989Z,958.33
2019-04-20T01:47:23.705Z,958.31
2019-04-20T01:48:27.423Z,958.32
2019-04-20T01:49:24.184Z,958.26
2019-04-20T01:50:26.099Z,958.28
2019-04-20T01:51:26.333Z,958.30
2019-04-20T01:52:27.012Z,958.28
2019-04-20T01:53:37.457Z,958.30
2019-04-20T01:54:38.609Z,958.26
2019-04-20T01:55:35.841Z,958.27
2019-04-20T01:56:32.947Z,958.27
2019-04-20T01:57:26.128Z,958.25
2019-04-20T01:58:39.662Z,958.28
2019-04-20T01:59:33.494Z,958.25
2019-04-20T02:00:25.296Z,958.24
2019-04-20T02:01:25.085Z,958.24
2019-04-20T02:02:22.536Z,958.19
2019-04-20T02:03:22.854Z,958.25
2019-04-20T02:04:27.163Z,958.23
2019-04-20T02:05:24.708Z,958.26
2019-04-20T02:06:22.245Z,958.24
2019-04-20T02:07:28.415Z,958.24
2019-04-20T02:08:22.532Z,958.24
2019-04-20T02:09:22.572Z,958.22
2019-04-20T02:10:20.320Z,958.22
2019-04-20T02:11:25.096Z,958.20
2019-04-20T02:12:24.207Z,958.25
2019-04-20T02:13:19.582Z,958.27
2019-04-20T02:14:24.272Z,958.25
2019-04-20T02:15:29.397Z,958.24
2019-04-20T02:16:26.430Z,958.29
2019-04-20T02:17:28.342Z,958.26
2019-04-20T02:18:30.446Z,958.23
2019-04-20T02:19:30.473Z,958.24
2019-04-20T02:20:41.775Z,958.20
2019-04-20T02:21:33.755Z,958.21
2019-04-20T02:22:40.837Z,958.20
2019-04-20T02:23:31.554Z,958.23
2019-04-20T02:24:17.830Z,958.21
2019-04-20T02:25:18.553Z,958.24
2019-04-20T02:26:17.858Z,958.24
2019-04-20T02:27:20.635Z,958.25
2019-04-20T02:28:34.692Z,958.27
2019-04-20T02:29:43.181Z,958.25
2019-04-20T02:32:08.804Z,958.27
2019-04-20T02:32:50.437Z,958.24
2019-04-20T02:33:50.531Z,958.24
2019-04-20T02:35:03.419Z,958.28
2019-04-20T02:35:58.532Z,958.26
2019-04-20T02:38:01.648Z,958.28
2019-04-20T02:39:17.096Z,958.27
2019-04-20T02:40:51.265Z,958.25
2019-04-20T02:41:51.009Z,958.26
2019-04-20T02:42:51.050Z,958.28
2019-04-20T02:44:01.315Z,958.31
2019-04-20T02:44:47.749Z,958.29
2019-04-20T02:45:47.279Z,958.25
2019-04-20T02:46:46.883Z,958.26
2019-04-20T02:47:47.263Z,958.23
2019-04-20T02:48:56.852Z,958.24
2019-04-20T02:49:59.713Z,958.23
2019-04-20T02:50:50.023Z,958.24
2019-04-20T02:51:47.558Z,958.21
2019-04-20T02:52:55.939Z,958.24
2019-04-20T02:54:10.032Z,958.21
2019-04-20T02:54:48.124Z,958.23
2019-04-20T02:55:48.157Z,958.26
2019-04-20T02:56:48.408Z,958.23
2019-04-20T02:58:50.211Z,958.17
2019-04-20T03:00:33.605Z,958.20
2019-04-20T03:01:32.443Z,958.23
2019-04-20T03:02:29.945Z,958.25
2019-04-20T03:03:26.925Z,958.21
2019-04-20T03:04:25.790Z,958.21
2019-04-20T03:05:28.091Z,958.23
2019-04-20T03:06:26.438Z,958.20
2019-04-20T03:07:28.020Z,958.19
2019-04-20T03:08:26.588Z,958.23
2019-04-20T03:09:36.414Z,958.20
2019-04-20T03:10:43.012Z,958.21
2019-04-20T03:11:42.618Z,958.25
2019-04-20T03:12:55.132Z,958.21
2019-04-20T03:13:34.919Z,958.20
2019-04-20T03:14:26.582Z,958.20
2019-04-20T03:15:36.430Z,958.16
2019-04-20T03:16:32.213Z,958.17
2019-04-20T03:17:35.385Z,958.26
2019-04-20T03:18:32.554Z,958.15
2019-04-20T03:19:28.839Z,958.18
2019-04-20T03:20:36.624Z,958.22
2019-04-20T03:21:37.989Z,958.17
2019-04-20T03:22:47.981Z,958.17
2019-04-20T03:23:37.192Z,958.20
2019-04-20T03:24:37.752Z,958.23
2019-04-20T03:25:36.037Z,958.22
2019-04-20T03:26:33.955Z,958.20
2019-04-20T03:27:29.498Z,958.21
2019-04-20T03:28:30.996Z,958.19
2019-04-20T03:29:36.078Z,958.22
2019-04-20T03:33:00.153Z,958.26
2019-04-20T03:33:55.337Z,958.21
2019-04-20T03:34:54.904Z,958.31
2019-04-20T03:35:35.187Z,958.27
2019-04-20T03:36:43.007Z,958.24
2019-04-20T03:37:38.156Z,958.29
2019-04-20T03:38:27.272Z,958.29
2019-04-20T03:39:28.692Z,958.31
2019-04-20T03:40:24.335Z,958.30
2019-04-20T03:41:19.612Z,958.23
2019-04-20T03:42:11.155Z,958.28
2019-04-20T03:43:09.960Z,958.21
2019-04-20T03:44:14.152Z,958.21
2019-04-20T03:45:14.161Z,958.25
2019-04-20T03:46:12.549Z,958.22
2019-04-20T03:47:13.494Z,958.24
2019-04-20T03:48:32.244Z,958.21
2019-04-20T03:49:36.964Z,958.25
2019-04-20T03:50:31.937Z,958.21
2019-04-20T03:51:33.427Z,958.20
2019-04-20T03:52:27.810Z,958.23
2019-04-20T03:53:29.311Z,958.21
2019-04-20T03:54:27.624Z,958.20
2019-04-20T03:55:26.307Z,958.25
2019-04-20T03:56:29.842Z,958.21
2019-04-20T03:57:34.397Z,958.21
2019-04-20T03:58:29.088Z,958.28
2019-04-20T03:59:21.317Z,958.23
2019-04-20T04:00:26.879Z,958.25
2019-04-20T04:01:36.860Z,958.24
2019-04-20T04:02:37.514Z,958.25
2019-04-20T04:03:36.154Z,958.21
2019-04-20T04:04:27.697Z,958.22
2019-04-20T04:05:23.598Z,958.24
2019-04-20T04:06:22.627Z,958.24
2019-04-20T04:07:17.937Z,958.20
2019-04-20T04:08:17.985Z,958.23
2019-04-20T04:09:21.408Z,958.26
2019-04-20T04:10:23.858Z,958.28
2019-04-20T04:11:26.265Z,958.26
2019-04-20T04:12:17.722Z,958.26
2019-04-20T04:13:07.295Z,958.23
2019-04-20T04:14:07.162Z,958.24
2019-04-20T04:15:06.735Z,958.28
2019-04-20T04:16:10.398Z,958.34
2019-04-20T04:17:07.344Z,958.30
2019-04-20T04:18:13.516Z,958.25
2019-04-20T04:19:16.400Z,958.28
2019-04-20T04:20:12.760Z,958.32
2019-04-20T04:21:11.482Z,958.23
2019-04-20T04:22:18.055Z,958.30
2019-04-20T04:23:27.025Z,958.30
2019-04-20T04:24:19.963Z,958.29
2019-04-20T04:25:18.406Z,958.30
2019-04-20T04:26:24.698Z,958.28
2019-04-20T04:27:18.607Z,958.27
2019-04-20T04:28:21.274Z,958.25
2019-04-20T04:29:30.106Z,958.25
2019-04-20T04:30:19.220Z,958.24
2019-04-20T04:31:22.852Z,958.24
2019-04-20T04:32:45.406Z,958.26
2019-04-20T04:33:48.954Z,958.27
2019-04-20T04:34:23.503Z,958.27
2019-04-20T04:35:16.634Z,958.27
2019-04-20T04:36:21.130Z,958.29
2019-04-20T04:37:27.166Z,958.32
2019-04-20T04:38:27.458Z,958.31
2019-04-20T04:39:29.354Z,958.38
2019-04-20T04:40:31.017Z,958.37
2019-04-20T04:41:36.791Z,958.42
2019-04-20T04:42:30.412Z,958.36
2019-04-20T04:43:22.147Z,958.39
2019-04-20T04:44:20.248Z,958.39
2019-04-20T04:45:08.078Z,958.46
2019-04-20T04:46:03.982Z,958.42
2019-04-20T04:47:08.037Z,958.38
2019-04-20T04:48:06.795Z,958.46
2019-04-20T04:49:09.636Z,958.37
2019-04-20T04:50:09.609Z,958.43
2019-04-20T04:51:11.933Z,958.43
2019-04-20T04:52:07.891Z,958.41
2019-04-20T04:53:11.216Z,958.44
2019-04-20T04:54:13.840Z,958.45
2019-04-20T04:55:13.375Z,958.52
2019-04-20T04:56:07.168Z,958.49
2019-04-20T04:57:03.386Z,958.47
2019-04-20T04:58:02.604Z,958.44
2019-04-20T04:59:02.520Z,958.48
2019-04-20T05:00:03.588Z,958.51
2019-04-20T05:01:11.728Z,958.51
2019-04-20T05:02:03.395Z,958.51
2019-04-20T05:03:22.070Z,958.48
2019-04-20T05:04:21.437Z,958.53
2019-04-20T05:05:28.021Z,958.53
2019-04-20T05:06:21.029Z,958.57
2019-04-20T05:07:15.154Z,958.55
2019-04-20T05:08:10.154Z,958.59
2019-04-20T05:09:05.193Z,958.60
2019-04-20T05:10:01.452Z,958.61
2019-04-20T05:11:02.601Z,958.63
2019-04-20T05:12:08.300Z,958.65
2019-04-20T05:13:01.161Z,958.60
2019-04-20T05:14:06.694Z,958.63
2019-04-20T05:15:07.991Z,958.66
2019-04-20T05:16:15.855Z,958.63
2019-04-20T05:17:15.097Z,958.64
2019-04-20T05:18:20.600Z,958.67
2019-04-20T05:19:23.583Z,958.64
2019-04-20T05:20:18.116Z,958.63
2019-04-20T05:21:20.766Z,958.71
2019-04-20T05:22:22.930Z,958.70
2019-04-20T05:23:15.381Z,958.67
2019-04-20T05:24:16.903Z,958.66
2019-04-20T05:25:21.338Z,958.69
2019-04-20T05:26:19.984Z,958.71
2019-04-20T05:27:23.012Z,958.73
2019-04-20T05:28:14.453Z,958.72
2019-04-20T05:29:08.484Z,958.66
2019-04-20T05:29:59.558Z,958.64
2019-04-20T05:31:02.966Z,958.67
2019-04-20T05:32:05.899Z,958.70
2019-04-20T05:33:06.033Z,958.75
2019-04-20T05:34:21.598Z,958.79
2019-04-20T05:35:23.745Z,958.77
2019-04-20T05:36:19.191Z,958.83
2019-04-20T05:37:27.393Z,958.83
2019-04-20T05:38:22.952Z,958.81
2019-04-20T05:40:22.445Z,958.80
2019-04-20T05:41:20.103Z,958.74
2019-04-20T05:42:26.118Z,958.71
2019-04-20T05:43:17.475Z,958.73
2019-04-20T05:44:12.650Z,958.69
2019-04-20T05:45:18.079Z,958.78
2019-04-20T05:46:22.108Z,958.83
2019-04-20T05:47:20.013Z,958.84
2019-04-20T05:48:11.838Z,958.78
2019-04-20T05:49:23.070Z,958.78
2019-04-20T05:50:15.579Z,958.81
2019-04-20T05:51:28.449Z,958.87
2019-04-20T05:52:31.564Z,958.92
2019-04-20T05:53:23.129Z,958.83
2019-04-20T05:54:23.509Z,958.78
2019-04-20T05:55:19.386Z,958.85
2019-04-20T05:56:17.248Z,958.84
2019-04-20T05:57:23.601Z,958.80
2019-04-20T05:58:21.840Z,958.81
2019-04-20T05:59:15.824Z,958.80
2019-04-20T06:00:20.240Z,958.78
2019-04-20T06:01:20.171Z,958.79
2019-04-20T06:02:16.960Z,958.82
2019-04-20T06:03:15.312Z,958.81
2019-04-20T06:04:17.311Z,958.79
2019-04-20T06:05:16.061Z,958.80
2019-04-20T06:06:19.026Z,958.80
2019-04-20T06:07:21.123Z,958.84
2019-04-20T06:08:28.276Z,958.85
2019-04-20T06:09:16.589Z,958.89
2019-04-20T06:10:20.432Z,958.93
2019-04-20T06:11:19.311Z,958.85
2019-04-20T06:13:14.079Z,958.95
2019-04-20T06:14:07.109Z,959.09
2019-04-20T06:15:08.023Z,959.17
2019-04-20T06:16:12.873Z,959.20
2019-04-20T06:17:17.020Z,959.18
2019-04-20T06:18:13.610Z,959.16
2019-04-20T06:19:26.250Z,959.20
2019-04-20T06:20:25.006Z,959.18
2019-04-20T06:21:25.260Z,959.28
2019-04-20T06:22:24.698Z,959.35
2019-04-20T06:23:19.630Z,959.28
2019-04-20T06:24:17.153Z,959.37
2019-04-20T06:25:33.381Z,959.30
2019-04-20T06:26:26.772Z,959.27
2019-04-20T06:27:16.118Z,959.21
2019-04-20T06:28:12.715Z,959.26
2019-04-20T06:29:11.218Z,959.34
2019-04-20T06:30:11.161Z,959.49
2019-04-20T06:31:22.714Z,959.53
2019-04-20T06:32:21.448Z,959.61
2019-04-20T06:33:21.920Z,959.55
2019-04-20T06:34:25.636Z,959.67
2019-04-20T06:35:25.917Z,959.70
2019-04-20T06:36:21.938Z,959.75
2019-04-20T06:37:10.098Z,959.74
2019-04-20T06:38:29.380Z,959.83
2019-04-20T06:39:16.014Z,959.86
2019-04-20T06:40:29.311Z,959.90
2019-04-20T06:41:21.496Z,959.91
2019-04-20T06:42:23.688Z,959.96
2019-04-20T06:43:11.496Z,960.00
2019-04-20T06:44:17.727Z,960.05
2019-04-20T06:45:20.078Z,960.03
2019-04-20T06:46:16.161Z,960.15
2019-04-20T06:47:18.801Z,960.22
2019-04-20T06:48:21.491Z,960.28
2019-04-20T06:49:24.511Z,960.29
2019-04-20T06:50:15.975Z,960.44
2019-04-20T06:51:09.288Z,960.44
2019-04-20T06:52:20.378Z,960.54
2019-04-20T06:53:16.383Z,960.54
2019-04-20T06:54:04.713Z,960.56
2019-04-20T06:55:09.948Z,960.62
2019-04-20T06:56:15.785Z,960.64
2019-04-20T06:57:15.042Z,960.71
2019-04-20T06:58:31.854Z,960.73
2019-04-20T06:59:23.802Z,960.71
2019-04-20T07:00:22.902Z,960.73
2019-04-20T07:01:11.014Z,960.77
2019-04-20T07:02:22.282Z,960.81
2019-04-20T07:03:18.442Z,960.91
2019-04-20T07:04:33.470Z,960.93
2019-04-20T07:05:11.825Z,960.99
2019-04-20T07:06:30.720Z,961.14
2019-04-20T07:07:14.474Z,961.25
2019-04-20T07:08:27.409Z,961.26
2019-04-20T07:09:15.582Z,961.33
2019-04-20T07:11:11.339Z,961.39
2019-04-20T07:12:09.697Z,961.41
2019-04-20T07:13:07.964Z,961.44
2019-04-20T07:13:58.776Z,961.51
2019-04-20T07:14:58.647Z,961.55
2019-04-20T07:16:13.847Z,961.75
2019-04-20T07:17:24.535Z,961.85
2019-04-20T07:18:08.177Z,961.99
2019-04-20T07:20:04.213Z,962.23
2019-04-20T07:21:13.886Z,962.27
2019-04-20T07:23:26.458Z,962.30
2019-04-20T07:24:17.302Z,962.28
2019-04-20T07:25:07.922Z,962.17
2019-04-20T07:26:17.051Z,962.09
2019-04-20T07:27:08.103Z,962.24
2019-04-20T07:28:12.623Z,962.34
2019-04-20T07:29:15.531Z,962.35
2019-04-20T07:30:16.462Z,962.38
2019-04-20T07:31:06.854Z,962.37
2019-04-20T07:32:02.763Z,962.41
2019-04-20T07:33:08.737Z,962.41
2019-04-20T07:34:12.971Z,962.44
2019-04-20T07:35:08.728Z,962.41
2019-04-20T07:36:15.062Z,962.49
2019-04-20T07:37:35.162Z,962.59
2019-04-20T07:38:31.286Z,962.61
2019-04-20T07:39:13.481Z,962.70
2019-04-20T07:40:11.413Z,962.61
2019-04-20T07:41:08.263Z,962.64
2019-04-20T07:42:16.759Z,962.63
2019-04-20T07:43:05.373Z,962.59
2019-04-20T07:44:10.416Z,962.59
2019-04-20T07:45:16.490Z,962.62
2019-04-20T07:46:18.999Z,962.69
2019-04-20T07:47:16.664Z,962.66
2019-04-20T07:48:11.370Z,962.66
2019-04-20T07:49:07.452Z,962.63
2019-04-20T07:50:05.045Z,962.72
2019-04-20T07:50:58.181Z,962.73
2019-04-20T07:51:49.052Z,963.08
2019-04-20T07:52:58.786Z,963.17
2019-04-20T07:54:20.918Z,962.98
2019-04-20T07:55:30.163Z,962.84
2019-04-20T07:56:05.049Z,962.69
2019-04-20T07:57:05.688Z,962.51
2019-04-20T07:57:57.983Z,962.29
2019-04-20T07:58:53.478Z,962.10
2019-04-20T08:00:08.530Z,962.12
2019-04-20T08:01:15.119Z,961.93
2019-04-20T08:02:15.976Z,961.82
2019-04-20T08:03:08.932Z,961.79
2019-04-20T08:04:07.808Z,961.76
2019-04-20T08:05:01.751Z,961.88
2019-04-20T08:05:55.303Z,962.49
2019-04-20T08:06:51.960Z,964.28
2019-04-20T08:07:53.586Z,965.89
2019-04-20T08:09:05.747Z,964.62
2019-04-20T08:09:54.706Z,963.26
2019-04-20T08:11:01.265Z,962.20
2019-04-20T08:12:14.269Z,962.94
2019-04-20T08:13:09.316Z,962.94
2019-04-20T08:14:06.021Z,962.16
2019-04-20T08:15:11.852Z,961.89
2019-04-20T08:16:06.599Z,961.86
2019-04-20T08:17:35.465Z,961.60
2019-04-20T08:19:07.841Z,960.91
2019-04-20T08:20:04.354Z,960.64
2019-04-20T08:21:03.869Z,960.44
2019-04-20T08:22:09.498Z,960.40
2019-04-20T08:23:06.189Z,960.30
2019-04-20T08:24:02.472Z,960.24
2019-04-20T08:24:55.332Z,960.23
2019-04-20T08:25:52.301Z,960.18
2019-04-20T08:26:50.289Z,960.11
2019-04-20T08:27:44.513Z,960.11
2019-04-20T08:28:51.904Z,960.06
2019-04-20T08:29:57.380Z,960.01
2019-04-20T08:31:01.493Z,959.98
2019-04-20T08:32:07.729Z,959.95
2019-04-20T08:32:58.414Z,959.97
2019-04-20T08:34:15.056Z,959.92
2019-04-20T08:35:05.666Z,959.86
2019-04-20T08:36:04.369Z,959.82
2019-04-20T08:37:03.271Z,959.75
2019-04-20T08:38:26.444Z,959.82
2019-04-20T08:40:10.304Z,959.77
2019-04-20T08:40:58.383Z,959.72
2019-04-20T08:42:05.828Z,959.69
2019-04-20T08:43:15.190Z,959.69
2019-04-20T08:44:09.420Z,959.75
2019-04-20T08:45:03.751Z,959.67
2019-04-20T08:46:06.595Z,959.63
2019-04-20T08:47:10.201Z,959.69
2019-04-20T08:48:05.847Z,959.52
2019-04-20T08:49:03.375Z,959.58
2019-04-20T08:50:13.712Z,959.50
2019-04-20T08:51:06.113Z,959.48
2019-04-20T08:52:19.388Z,959.47
2019-04-20T08:53:23.185Z,959.49
2019-04-20T08:53:53.315Z,959.54
2019-04-20T08:55:02.328Z,959.44
2019-04-20T08:55:53.902Z,959.47
2019-04-20T08:56:46.982Z,959.47
2019-04-20T08:57:42.398Z,959.46
2019-04-20T08:58:41.487Z,959.48
2019-04-20T08:59:44.296Z,959.49
2019-04-20T09:00:47.765Z,959.43
2019-04-20T09:01:42.540Z,959.41
2019-04-20T09:02:48.064Z,959.35
2019-04-20T09:03:53.138Z,959.28
2019-04-20T09:04:49.280Z,959.33
2019-04-20T09:05:51.198Z,959.42
2019-04-20T09:06:54.880Z,959.34
2019-04-20T09:07:53.851Z,959.37
2019-04-20T09:08:50.895Z,959.33
2019-04-20T09:10:03.096Z,959.33
2019-04-20T09:11:04.246Z,959.34
2019-04-20T09:12:12.065Z,959.29
2019-04-20T09:12:53.142Z,959.27
2019-04-20T09:13:46.462Z,959.31
2019-04-20T09:14:41.410Z,959.33
2019-04-20T09:15:40.455Z,959.30
2019-04-20T09:16:47.907Z,959.25
2019-04-20T09:17:47.459Z,959.24
2019-04-20T09:18:49.304Z,959.25
2019-04-20T09:19:50.300Z,959.28
2019-04-20T09:20:47.320Z,959.41
2019-04-20T09:21:48.149Z,959.30
2019-04-20T09:22:53.330Z,959.32
2019-04-20T09:23:52.227Z,959.32
2019-04-20T09:25:04.920Z,959.24
2019-04-20T09:26:59.442Z,959.25
2019-04-20T09:27:45.643Z,959.24
2019-04-20T09:28:54.393Z,959.24
2019-04-20T09:29:52.898Z,959.24
2019-04-20T09:30:48.129Z,959.24
2019-04-20T09:31:51.905Z,959.34
2019-04-20T09:32:57.677Z,959.37
2019-04-20T09:33:58.512Z,959.27
2019-04-20T09:35:03.523Z,959.22
2019-04-20T09:35:53.139Z,959.25
2019-04-20T09:36:49.974Z,959.23
2019-04-20T09:37:57.177Z,959.27
2019-04-20T09:38:47.909Z,959.32
2019-04-20T09:39:54.359Z,959.43
2019-04-20T09:40:57.210Z,959.58
2019-04-20T09:41:59.224Z,959.47
2019-04-20T09:42:37.517Z,959.36
2019-04-20T09:43:37.436Z,959.42
2019-04-20T09:44:42.695Z,959.43
2019-04-20T09:45:42.594Z,959.44
2019-04-20T09:46:45.268Z,959.42
2019-04-20T09:47:43.347Z,959.49
2019-04-20T09:48:44.999Z,959.54
2019-04-20T09:49:49.274Z,959.51
2019-04-20T09:50:53.111Z,959.49
2019-04-20T09:51:49.967Z,959.40
2019-04-20T09:52:54.044Z,959.38
2019-04-20T09:53:48.442Z,959.41
2019-04-20T09:54:55.148Z,959.35
2019-04-20T09:56:00.533Z,959.34
2019-04-20T09:57:00.600Z,959.34
2019-04-20T09:57:54.431Z,959.32
2019-04-20T09:58:55.400Z,959.26
2019-04-20T09:59:53.751Z,959.27
2019-04-20T10:00:52.948Z,959.27
2019-04-20T10:01:44.607Z,959.22
2019-04-20T10:02:39.069Z,959.34
2019-04-20T10:03:36.646Z,959.26
2019-04-20T10:04:35.728Z,959.26
2019-04-20T10:05:35.731Z,959.26
2019-04-20T10:06:36.127Z,959.25
2019-04-20T10:07:37.365Z,959.23
2019-04-20T10:08:44.732Z,959.27
2019-04-20T10:09:41.076Z,959.34
2019-04-20T10:10:40.513Z,959.24
2019-04-20T10:11:35.271Z,959.23
2019-04-20T10:12:35.655Z,959.25
2019-04-20T10:13:36.272Z,959.30
2019-04-20T10:14:35.181Z,959.25
2019-04-20T10:15:35.366Z,959.21
2019-04-20T10:16:35.674Z,959.24
2019-04-20T10:17:35.725Z,959.22
2019-04-20T10:18:41.363Z,959.34
2019-04-20T10:19:37.651Z,959.28
2019-04-20T10:20:37.895Z,959.26
2019-04-20T10:21:34.328Z,959.26
2019-04-20T10:22:34.250Z,959.23
2019-04-20T10:23:34.511Z,959.26
2019-04-20T10:24:34.794Z,959.33
2019-04-20T10:25:34.023Z,959.24
2019-04-20T10:26:34.438Z,959.19
2019-04-20T10:27:34.761Z,959.20
2019-04-20T10:28:33.903Z,959.24
2019-04-20T10:29:33.684Z,959.27
2019-04-20T10:30:34.707Z,959.21
2019-04-20T10:31:37.644Z,959.22
2019-04-20T10:32:39.338Z,959.25
2019-04-20T10:33:33.528Z,959.25
2019-04-20T10:34:34.641Z,959.30
2019-04-20T10:35:33.852Z,959.29
2019-04-20T10:36:33.409Z,959.26
2019-04-20T10:37:33.658Z,959.28
2019-04-20T10:38:35.902Z,959.26
2019-04-20T10:39:34.066Z,959.32
2019-04-20T10:40:50.272Z,959.38
2019-04-20T10:41:40.920Z,959.27
2019-04-20T10:42:32.630Z,959.27
2019-04-20T10:43:33.256Z,959.23
2019-04-20T10:44:32.769Z,959.23
2019-04-20T10:45:33.058Z,959.23
2019-04-20T10:46:33.281Z,959.21
2019-04-20T10:47:32.747Z,959.27
2019-04-20T10:48:41.285Z,959.27
2019-04-20T10:49:33.255Z,959.25
2019-04-20T10:50:32.384Z,959.28
2019-04-20T10:51:31.905Z,959.23
2019-04-20T10:52:32.057Z,959.26
2019-04-20T10:53:32.224Z,959.21
2019-04-20T10:54:32.389Z,959.19
2019-04-20T10:55:31.595Z,959.15
2019-04-20T10:56:31.764Z,959.17
2019-04-20T10:57:31.418Z,959.18
2019-04-20T10:58:31.738Z,959.29
2019-04-20T10:59:31.847Z,959.29
2019-04-20T11:00:31.392Z,959.21
2019-04-20T11:01:31.624Z,959.20
2019-04-20T11:02:31.883Z,959.20
2019-04-20T11:03:32.227Z,959.22
2019-04-20T11:04:30.857Z,959.41
2019-04-20T11:05:30.787Z,959.53
2019-04-20T11:06:30.690Z,959.33
2019-04-20T11:07:30.619Z,959.34
2019-04-20T11:08:30.735Z,959.45
2019-04-20T11:09:30.450Z,959.39
2019-04-20T11:10:46.081Z,959.25
2019-04-20T11:11:31.968Z,959.25
2019-04-20T11:12:30.421Z,959.10
2019-04-20T11:13:30.124Z,959.09
2019-04-20T11:14:34.546Z,959.04
2019-04-20T11:15:30.460Z,959.07
2019-04-20T11:16:30.637Z,959.07
2019-04-20T11:17:31.579Z,959.04
2019-04-20T11:18:29.717Z,958.97
2019-04-20T11:19:29.635Z,958.91
2019-04-20T11:20:30.763Z,958.85
2019-04-20T11:21:30.206Z,958.84
2019-04-20T11:22:30.538Z,958.84
2019-04-20T11:23:29.313Z,958.86
2019-04-20T11:24:30.183Z,958.81
2019-04-20T11:25:30.260Z,958.76
2019-04-20T11:26:29.106Z,958.67
2019-04-20T11:27:30.027Z,958.66
2019-04-20T11:28:30.217Z,958.65
2019-04-20T11:29:28.829Z,958.51
2019-04-20T11:30:29.967Z,958.55
2019-04-20T11:31:36.350Z,958.55
2019-04-20T11:32:28.585Z,958.61
2019-04-20T11:33:28.503Z,958.54
2019-04-20T11:34:33.388Z,958.53
2019-04-20T11:35:34.492Z,958.46
2019-04-20T11:36:28.279Z,958.42
2019-04-20T11:37:29.077Z,958.40
2019-04-20T11:38:28.207Z,958.45
2019-04-20T11:39:29.139Z,958.43
2019-04-20T11:40:28.827Z,958.44
2019-04-20T11:41:31.052Z,958.41
2019-04-20T11:42:27.805Z,958.38
2019-04-20T11:43:27.699Z,958.39
2019-04-20T11:44:30.270Z,958.36
2019-04-20T11:45:28.744Z,958.32
2019-04-20T11:46:27.470Z,958.31
2019-04-20T11:47:28.220Z,958.28
2019-04-20T11:48:27.505Z,958.27
2019-04-20T11:49:27.812Z,958.24
2019-04-20T11:50:27.486Z,958.19
2019-04-20T11:51:27.622Z,958.22
2019-04-20T11:52:28.094Z,958.17
2019-04-20T11:53:28.613Z,958.16
2019-04-20T11:54:26.811Z,958.12
2019-04-20T11:55:26.831Z,958.14
2019-04-20T11:56:32.924Z,958.09
2019-04-20T11:57:27.171Z,958.12
2019-04-20T11:58:26.488Z,958.13
2019-04-20T11:59:27.402Z,958.10
2019-04-20T12:00:27.641Z,958.09
2019-04-20T12:01:28.063Z,958.09
2019-04-20T12:02:33.073Z,958.06
2019-04-20T12:03:35.277Z,958.07
2019-04-20T12:04:36.033Z,958.05
2019-04-20T12:05:35.643Z,958.03
2019-04-20T12:06:26.589Z,958.03
2019-04-20T12:07:26.784Z,958.05
2019-04-20T12:08:27.065Z,958.01
2019-04-20T12:09:26.283Z,958.00
2019-04-20T12:10:27.452Z,958.05
2019-04-20T12:11:36.202Z,958.06
2019-04-20T12:12:35.018Z,958.00
2019-04-20T12:13:26.754Z,958.02
2019-04-20T12:14:25.210Z,958.02
2019-04-20T12:15:26.494Z,957.97
2019-04-20T12:16:25.714Z,957.97
2019-04-20T12:17:25.958Z,957.99
2019-04-20T12:18:25.394Z,957.95
2019-04-20T12:19:24.910Z,957.98
2019-04-20T12:20:25.070Z,957.98
2019-04-20T12:21:24.654Z,957.99
2019-04-20T12:22:24.595Z,957.96
2019-04-20T12:23:24.626Z,957.99
2019-04-20T12:24:24.683Z,957.97
2019-04-20T12:25:24.338Z,957.92
2019-04-20T12:26:24.816Z,957.91
2019-04-20T12:27:24.993Z,957.92
2019-04-20T12:28:25.274Z,957.90
2019-04-20T12:29:24.028Z,957.87
2019-04-20T12:30:24.055Z,957.91
2019-04-20T12:31:27.430Z,957.92
2019-04-20T12:32:27.103Z,957.89
2019-04-20T12:33:24.362Z,957.87
2019-04-20T12:34:24.528Z,957.87
2019-04-20T12:35:24.511Z,957.86
2019-04-20T12:36:23.939Z,957.86
2019-04-20T12:37:23.503Z,957.86
2019-04-20T12:38:23.305Z,957.85
2019-04-20T12:39:23.223Z,957.81
2019-04-20T12:40:24.000Z,957.79
2019-04-20T12:41:34.424Z,957.81
2019-04-20T12:42:23.157Z,957.78